Time;durP1;ratioP1;P1;durP2;ratioP2;P2;SDS_P1;SDS_P2;PMS_P1;PMS_P2;Temp;Humidity;BMP_temperature;BMP_pressure;BME280_temperature;BME280_humidity;BME280_pressure;Samples;Min_cycle;Max_cycle;Signal;HPM_P1;HPM_P2
2022/09/20 00:03:15;;;;;;;;;;;;;;;20.98;43.82;96035.06;10430777;28;3335;-47
2022/09/20 00:08:15;;;;;;;;;;;;;;;20.94;43.52;96026.13;10430474;28;3374;-46
2022/09/20 00:13:15;;;;;;;;;;;;;;;20.95;43.92;96025.88;10436930;28;3260;-46
2022/09/20 00:18:16;;;;;;;;;;;;;;;20.98;43.83;96035.88;10431521;28;3323;-46
2022/09/20 00:23:16;;;;;;;;;;;;;;;20.96;43.79;96019.53;10434225;28;3315;-46
2022/09/20 00:28:16;;;;;;;;;;;;;;;20.96;43.80;96026.66;10437863;28;3342;-47
2022/09/20 00:33:17;;;;;;;;;;;;;;;20.98;44.08;96027.16;10429925;28;3275;-48
2022/09/20 00:38:17;;;;;;;;;;;;;;;20.96;44.23;96026.66;10438524;28;3311;-45
2022/09/20 00:43:33;;;;;;;;;;;;;;;20.93;42.91;96017.47;10438088;28;3311;-44
2022/09/20 00:48:33;;;;;;;;;;;;;;;20.92;42.60;96018.50;10465811;28;3343;-45
2022/09/20 00:53:37;;;;;;;;;;;;;;;20.94;43.51;96019.03;10428970;28;3335;-45
2022/09/20 00:58:40;;;;;;;;;;;;;;;20.92;43.61;96026.41;10436469;28;3359;-46
2022/09/20 01:03:41;;;;;;;;;;;;;;;20.95;42.99;96025.88;10464280;28;3327;-46
2022/09/20 01:08:45;;;;;;;;;;;;;;;20.91;43.00;96019.56;10439804;28;3585;-45
2022/09/20 01:13:45;;;;;;;;;;;;;;;20.92;43.00;96015.88;10413203;28;3248;-48
2022/09/20 01:18:45;;;;;;;;;;;;;;;20.93;43.38;96019.28;10441825;28;3324;-46
2022/09/20 01:24:05;;;;;;;;;;;;;;;20.92;42.27;96015.06;10471065;28;3314;-45
2022/09/20 01:29:10;;;;;;;;;;;;;;;20.93;42.46;96006.91;10440856;28;3637;-45
2022/09/20 01:34:24;;;;;;;;;;;;;;;20.92;42.59;95994.00;10458005;28;3284;-47
2022/09/20 01:39:37;;;;;;;;;;;;;;;20.94;42.59;95997.94;10464217;28;3436;-45
2022/09/20 01:44:46;;;;;;;;;;;;;;;20.98;43.15;96000.81;10439289;28;3252;-48
2022/09/20 01:49:52;;;;;;;;;;;;;;;20.94;43.28;96005.03;10440457;28;3264;-45
2022/09/20 01:55:07;;;;;;;;;;;;;;;20.91;42.38;95993.22;10441008;28;3336;-45
2022/09/20 02:00:10;;;;;;;;;;;;;;;20.94;42.94;95997.13;10448086;28;3542;-45
2022/09/20 02:05:29;;;;;;;;;;;;;;;20.93;42.56;95990.31;10443098;28;3303;-45
2022/09/20 02:10:31;;;;;;;;;;;;;;;20.93;41.88;95993.75;10442371;28;3244;-44
2022/09/20 02:15:51;;;;;;;;;;;;;;;20.92;42.99;95994.78;10445812;28;3461;-48
2022/09/20 02:20:53;;;;;;;;;;;;;;;20.93;42.51;95985.03;10444317;28;3584;-44
2022/09/20 02:26:00;;;;;;;;;;;;;;;20.91;42.07;95985.31;10439248;28;3411;-46
2022/09/20 02:31:10;;;;;;;;;;;;;;;20.93;42.51;95985.84;10463331;28;3268;-45
2022/09/20 02:36:22;;;;;;;;;;;;;;;20.94;42.65;95992.66;10437073;28;3389;-45
2022/09/20 02:41:34;;;;;;;;;;;;;;;21.00;43.19;95986.31;10431793;28;3319;-45
2022/09/20 02:46:41;;;;;;;;;;;;;;;21.04;43.37;95987.38;10430539;28;3322;-44
2022/09/20 02:51:51;;;;;;;;;;;;;;;20.97;42.96;96000.03;10438994;28;3310;-45
2022/09/20 02:57:10;;;;;;;;;;;;;;;20.96;42.77;95990.53;10437275;28;3332;-46
2022/09/20 03:02:28;;;;;;;;;;;;;;;20.99;43.16;96000.56;10436177;28;3359;-47
2022/09/20 03:07:29;;;;;;;;;;;;;;;20.93;42.52;95996.38;10435073;28;3312;-45
2022/09/20 03:12:32;;;;;;;;;;;;;;;20.93;42.82;96000.84;10442207;28;3233;-44
2022/09/20 03:17:41;;;;;;;;;;;;;;;20.96;42.53;95995.81;10434489;28;3327;-46
2022/09/20 03:22:48;;;;;;;;;;;;;;;20.91;42.76;95993.22;10468546;28;3255;-45
2022/09/20 03:27:48;;;;;;;;;;;;;;;20.92;42.50;95996.63;10469636;28;3326;-44
2022/09/20 03:33:05;;;;;;;;;;;;;;;20.93;42.60;95999.00;10435920;28;3721;-45
2022/09/20 03:38:28;;;;;;;;;;;;;;;20.96;42.87;95995.81;10459896;28;3296;-45
2022/09/20 03:43:34;;;;;;;;;;;;;;;20.99;43.20;96005.84;10432133;28;3232;-46
2022/09/20 03:48:38;;;;;;;;;;;;;;;21.02;43.07;96005.31;10432078;28;3295;-44
2022/09/20 03:53:42;;;;;;;;;;;;;;;21.05;43.61;95998.72;10436262;28;3315;-44
2022/09/20 03:58:58;;;;;;;;;;;;;;;21.05;43.01;96004.78;10466634;28;3423;-44
2022/09/20 04:04:13;;;;;;;;;;;;;;;21.03;43.34;95992.94;10427609;28;3272;-44
2022/09/20 04:09:13;;;;;;;;;;;;;;;21.08;43.31;96002.66;10464950;28;3201;-48
2022/09/20 04:14:22;;;;;;;;;;;;;;;21.10;43.42;96011.09;10437244;28;3331;-45
2022/09/20 04:19:23;;;;;;;;;;;;;;;21.10;43.50;96008.47;10455633;28;3322;-47
2022/09/20 04:24:24;;;;;;;;;;;;;;;21.04;43.36;96008.47;10441951;28;3299;-45
2022/09/20 04:29:30;;;;;;;;;;;;;;;21.05;43.61;96015.31;10441269;28;3318;-48
2022/09/20 04:39:56;;;;;;;;;;;;;;;20.97;43.73;96018.50;10427870;28;3295;-46
2022/09/20 04:45:08;;;;;;;;;;;;;;;20.98;43.87;96020.06;10460286;28;3279;-45
2022/09/20 04:50:27;;;;;;;;;;;;;;;20.96;43.59;96021.38;10463052;28;3434;-46
2022/09/20 04:55:34;;;;;;;;;;;;;;;20.98;43.79;96027.97;10432784;28;3303;-45
2022/09/20 05:00:54;;;;;;;;;;;;;;;20.91;44.03;96027.47;10437823;28;3306;-46
2022/09/20 05:06:21;;;;;;;;;;;;;;;20.90;44.32;96019.81;10430346;28;3264;-46
2022/09/20 05:11:26;;;;;;;;;;;;;;;20.91;44.53;96030.09;10464509;28;3311;-47
2022/09/20 05:16:49;;;;;;;;;;;;;;;20.89;44.41;96031.44;10441255;28;3347;-44
2022/09/20 05:21:52;;;;;;;;;;;;;;;20.83;44.85;96035.94;10440617;28;3491;-45
2022/09/20 05:26:56;;;;;;;;;;;;;;;20.77;45.19;96038.84;10432885;28;3296;-45
2022/09/20 05:32:05;;;;;;;;;;;;;;;20.79;45.40;96042.78;10436672;28;3244;-45
2022/09/20 05:37:05;;;;;;;;;;;;;;;20.78;45.56;96041.22;10455591;28;3431;-45
2022/09/20 05:42:06;;;;;;;;;;;;;;;20.79;45.72;96048.03;10436046;28;3438;-45
2022/09/20 05:47:12;;;;;;;;;;;;;;;20.81;45.60;96045.91;10436368;28;3307;-46
2022/09/20 05:52:22;;;;;;;;;;;;;;;20.75;46.04;96046.22;10437952;28;3243;-46
2022/09/20 05:57:38;;;;;;;;;;;;;;;20.73;45.83;96059.66;10477995;28;3307;-46
2022/09/20 06:02:50;;;;;;;;;;;;;;;20.74;46.07;96066.50;10436196;28;3256;-48
2022/09/20 06:08:02;;;;;;;;;;;;;;;20.70;46.12;96067.31;10440026;28;3304;-45
2022/09/20 06:13:13;;;;;;;;;;;;;;;20.71;45.91;96072.28;10439176;28;3365;-46
2022/09/20 06:18:17;;;;;;;;;;;;;;;20.72;45.84;96073.09;10477500;28;3307;-45
2022/09/20 06:23:17;;;;;;;;;;;;;;;20.66;45.96;96072.31;10447558;28;3355;-47
2022/09/20 06:28:36;;;;;;;;;;;;;;;20.64;46.00;96082.34;10442611;28;3299;-45
2022/09/20 06:33:43;;;;;;;;;;;;;;;20.64;45.87;96086.81;10440075;28;3335;-47
2022/09/20 06:44:22;;;;;;;;;;;;;;;20.58;46.21;96078.13;10437891;28;3308;-45
2022/09/20 06:49:22;;;;;;;;;;;;;;;20.59;46.20;96084.97;10447538;28;3699;-45
2022/09/20 06:54:23;;;;;;;;;;;;;;;20.56;46.08;96093.41;10443738;28;3291;-45
2022/09/20 06:59:23;;;;;;;;;;;;;;;20.58;46.18;96093.94;10439447;28;3312;-45
2022/09/20 07:04:25;;;;;;;;;;;;;;;20.56;45.83;96090.78;10439962;28;3407;-50
2022/09/20 07:09:26;;;;;;;;;;;;;;;20.55;45.67;96094.44;10473486;28;3702;-46
2022/09/20 07:14:27;;;;;;;;;;;;;;;20.55;46.05;96089.19;10436120;28;3280;-44
2022/09/20 07:19:27;;;;;;;;;;;;;;;20.54;45.81;96097.34;10443599;28;3344;-46
2022/09/20 07:24:31;;;;;;;;;;;;;;;20.53;45.89;96096.56;10440016;28;3291;-46
2022/09/20 07:29:31;;;;;;;;;;;;;;;20.53;45.74;96101.81;10438321;28;3497;-45
2022/09/20 07:34:31;;;;;;;;;;;;;;;20.52;45.96;96094.19;10436358;28;3048;-46
2022/09/20 07:39:32;;;;;;;;;;;;;;;20.49;45.69;96108.66;10434359;28;3062;-45
2022/09/20 07:44:32;;;;;;;;;;;;;;;20.50;45.87;96117.38;10433754;28;3026;-47
2022/09/20 07:49:32;;;;;;;;;;;;;;;20.47;45.97;96123.94;10443752;28;3322;-46
2022/09/20 07:54:32;;;;;;;;;;;;;;;20.48;45.68;96124.75;10430165;28;2950;-47
2022/09/20 07:59:33;;;;;;;;;;;;;;;20.48;45.79;96120.28;10445244;28;3045;-45
2022/09/20 08:04:33;;;;;;;;;;;;;;;20.42;45.60;96126.59;10442965;28;2950;-48
2022/09/20 08:09:35;;;;;;;;;;;;;;;20.46;45.76;96124.22;10435396;28;3011;-45
2022/09/20 08:14:35;;;;;;;;;;;;;;;20.43;45.88;96125.53;10437554;28;2969;-48
2022/09/20 08:19:38;;;;;;;;;;;;;;;20.42;45.62;96121.34;10446046;28;3186;-44
2022/09/20 08:24:39;;;;;;;;;;;;;;;20.40;45.96;96123.44;10451869;28;3131;-47
2022/09/20 08:29:39;;;;;;;;;;;;;;;20.41;45.67;96132.09;10437450;28;3197;-45
2022/09/20 08:34:40;;;;;;;;;;;;;;;20.41;45.57;96129.47;10435141;28;3036;-47
2022/09/20 08:39:41;;;;;;;;;;;;;;;20.39;45.58;96131.56;10442400;28;3081;-47
2022/09/20 08:44:51;;;;;;;;;;;;;;;20.42;45.67;96125.81;10427301;28;2981;-46
2022/09/20 08:49:54;;;;;;;;;;;;;;;20.39;45.81;96128.94;10431232;28;3033;-47
2022/09/20 08:54:56;;;;;;;;;;;;;;;20.39;45.62;96128.94;10427102;28;3053;-44
2022/09/20 08:59:57;;;;;;;;;;;;;;;20.37;45.69;96131.84;10430253;28;3023;-45
2022/09/20 09:04:57;;;;;;;;;;;;;;;20.36;45.47;96140.78;10451155;28;2970;-45
2022/09/20 09:09:58;;;;;;;;;;;;;;;20.38;45.72;96138.69;10432232;28;3069;-44
2022/09/20 09:15:00;;;;;;;;;;;;;;;20.34;45.64;96137.63;10432264;28;3131;-45
2022/09/20 09:20:13;;;;;;;;;;;;;;;20.35;45.63;96135.78;10461780;28;3068;-46
2022/09/20 09:25:15;;;;;;;;;;;;;;;20.32;45.56;96137.09;10439525;28;3034;-45
2022/09/20 09:30:20;;;;;;;;;;;;;;;20.32;45.62;96126.56;10435664;28;3077;-46
2022/09/20 09:35:25;;;;;;;;;;;;;;;20.33;45.63;96122.09;10440957;28;2962;-44
2022/09/20 09:40:25;;;;;;;;;;;;;;;20.34;45.48;96124.47;10467484;28;3022;-44
2022/09/20 09:45:26;;;;;;;;;;;;;;;20.34;45.78;96119.19;10439097;28;3034;-45
2022/09/20 09:50:28;;;;;;;;;;;;;;;20.34;45.61;96121.81;10431913;28;3323;-44
2022/09/20 09:55:33;;;;;;;;;;;;;;;20.31;45.81;96117.09;10447115;28;2961;-45
2022/09/20 10:00:34;;;;;;;;;;;;;;;20.31;45.71;96119.72;10448359;28;3105;-46
2022/09/20 10:05:53;;;;;;;;;;;;;;;20.31;45.55;96119.72;10438277;28;3153;-44
2022/09/20 10:11:03;;;;;;;;;;;;;;;20.30;45.68;96118.13;10444629;28;2947;-45
2022/09/20 10:16:06;;;;;;;;;;;;;;;20.29;45.69;96124.47;10441916;28;3033;-46
2022/09/20 10:21:10;;;;;;;;;;;;;;;20.28;45.66;96114.97;10437657;28;3169;-46
2022/09/20 10:26:29;;;;;;;;;;;;;;;20.28;45.80;96109.72;10433489;28;3049;-47
2022/09/20 10:31:29;;;;;;;;;;;;;;;20.25;45.81;96116.31;10439277;28;3069;-45
2022/09/20 10:36:43;;;;;;;;;;;;;;;20.30;45.60;96112.88;10434598;28;3018;-44
2022/09/20 10:47:21;;;;;;;;;;;;;;;20.28;45.91;96121.03;10437537;28;3021;-46
2022/09/20 10:52:34;;;;;;;;;;;;;;;20.26;45.54;96114.44;10440597;28;2942;-47
2022/09/20 10:57:40;;;;;;;;;;;;;;;20.24;45.91;96112.09;10435632;28;3081;-46
2022/09/20 11:02:45;;;;;;;;;;;;;;;20.24;45.71;96113.94;10436222;28;3115;-45
2022/09/20 11:08:04;;;;;;;;;;;;;;;20.23;45.69;96112.38;10466801;28;2986;-46
2022/09/20 11:13:13;;;;;;;;;;;;;;;20.24;45.67;96111.28;10445841;28;2953;-49
2022/09/20 11:18:22;;;;;;;;;;;;;;;20.27;45.66;96116.84;10474774;28;3026;-44
2022/09/20 11:23:41;;;;;;;;;;;;;;;20.26;45.58;96117.09;10435816;28;3033;-45
2022/09/20 11:28:42;;;;;;;;;;;;;;;20.24;45.72;96119.19;10443923;28;3005;-45
2022/09/20 11:33:47;;;;;;;;;;;;;;;20.23;45.60;96133.41;10435439;28;3125;-46
2022/09/20 11:38:53;;;;;;;;;;;;;;;20.25;45.63;96123.41;10438784;28;2995;-48
2022/09/20 11:44:19;;;;;;;;;;;;;;;20.24;45.77;96116.56;10454865;28;3012;-44
2022/09/20 11:49:22;;;;;;;;;;;;;;;20.27;45.81;96110.78;10428488;28;2950;-45
2022/09/20 11:54:53;;;;;;;;;;;;;;;20.22;45.64;96110.75;10435090;28;3347;-49
2022/09/20 11:59:55;;;;;;;;;;;;;;;20.24;45.49;96108.66;10445375;28;3019;-47
2022/09/20 12:04:55;;;;;;;;;;;;;;;20.20;45.75;96103.13;10435727;28;3067;-44
2022/09/20 12:10:17;;;;;;;;;;;;;;;20.21;45.94;96110.00;10472315;28;3059;-44
2022/09/20 12:15:28;;;;;;;;;;;;;;;20.20;45.85;96099.72;10443206;28;3025;-44
2022/09/20 12:20:31;;;;;;;;;;;;;;;20.20;45.96;96089.97;10441988;28;2965;-43
2022/09/20 12:25:36;;;;;;;;;;;;;;;20.24;45.58;96083.13;10432137;28;3038;-45
2022/09/20 12:30:36;;;;;;;;;;;;;;;20.24;45.61;96083.13;10442763;28;3052;-43
2022/09/20 12:35:43;;;;;;;;;;;;;;;20.19;45.36;96080.53;10442530;28;2982;-45
2022/09/20 12:40:58;;;;;;;;;;;;;;;20.22;45.66;96079.19;10437133;28;3133;-45
2022/09/20 12:46:04;;;;;;;;;;;;;;;20.17;45.76;96076.53;10436471;28;3038;-44
2022/09/20 12:56:53;;;;;;;;;;;;;;;20.17;45.82;96077.28;10435083;28;3017;-44
2022/09/20 13:01:53;;;;;;;;;;;;;;;20.15;46.07;96082.03;10456864;28;3045;-43
2022/09/20 13:07:14;;;;;;;;;;;;;;;20.20;45.93;96070.75;10465392;28;3051;-43
2022/09/20 13:12:15;;;;;;;;;;;;;;;20.16;45.91;96075.72;10445479;28;3017;-45
2022/09/20 13:17:21;;;;;;;;;;;;;;;20.13;45.72;96076.25;10446898;28;3069;-43
2022/09/20 13:22:31;;;;;;;;;;;;;;;20.15;45.91;96078.63;10440527;28;3034;-44
2022/09/20 13:27:33;;;;;;;;;;;;;;;20.12;45.98;96068.63;10468453;28;3070;-45
2022/09/20 13:32:33;;;;;;;;;;;;;;;20.10;46.04;96065.47;10447066;28;3045;-44
2022/09/20 13:37:35;;;;;;;;;;;;;;;20.14;46.07;96066.50;10442893;28;3010;-43
2022/09/20 13:42:35;;;;;;;;;;;;;;;20.14;45.88;96072.56;10465423;28;3371;-48
2022/09/20 13:47:39;;;;;;;;;;;;;;;20.09;46.33;96082.31;10444352;28;3023;-45
2022/09/20 13:52:46;;;;;;;;;;;;;;;20.13;46.16;96070.22;10474374;28;3310;-44
2022/09/20 13:57:47;;;;;;;;;;;;;;;20.07;46.15;96068.63;10447550;28;3047;-43
2022/09/20 14:02:47;;;;;;;;;;;;;;;20.08;46.19;96070.19;10445831;28;3069;-44
2022/09/20 14:07:48;;;;;;;;;;;;;;;20.06;46.04;96072.31;10450213;28;3125;-45
2022/09/20 14:12:48;;;;;;;;;;;;;;;20.06;46.26;96074.94;10450040;28;2991;-46
2022/09/20 14:17:51;;;;;;;;;;;;;;;20.06;46.11;96072.31;10438058;28;3025;-43
2022/09/20 14:22:51;;;;;;;;;;;;;;;20.06;46.08;96062.56;10444665;28;3101;-45
2022/09/20 14:28:15;;;;;;;;;;;;;;;20.08;46.22;96075.47;10444588;28;3110;-43
2022/09/20 14:33:17;;;;;;;;;;;;;;;20.06;46.34;96073.09;10444328;28;3085;-46
2022/09/20 14:38:18;;;;;;;;;;;;;;;20.03;46.20;96070.97;10472669;28;3180;-44
2022/09/20 14:43:23;;;;;;;;;;;;;;;20.01;46.24;96061.78;10437559;28;3094;-46
2022/09/20 14:48:23;;;;;;;;;;;;;;;20.04;46.19;96069.94;10433346;28;3090;-44
2022/09/20 14:53:25;;;;;;;;;;;;;;;20.03;46.19;96065.72;10440106;28;3195;-45
2022/09/20 14:58:25;;;;;;;;;;;;;;;20.02;46.29;96069.41;10438039;28;3092;-44
2022/09/20 15:03:27;;;;;;;;;;;;;;;20.01;46.38;96065.19;10435348;28;3095;-45
2022/09/20 15:08:27;;;;;;;;;;;;;;;19.98;46.23;96057.84;10446341;28;3075;-44
2022/09/20 15:13:28;;;;;;;;;;;;;;;20.01;46.48;96064.41;10440162;28;3133;-45
2022/09/20 15:18:30;;;;;;;;;;;;;;;19.99;46.23;96063.91;10427308;28;3453;-47
2022/09/20 15:23:30;;;;;;;;;;;;;;;19.97;46.29;96068.63;10465864;28;2969;-43
2022/09/20 15:28:32;;;;;;;;;;;;;;;19.99;46.35;96066.53;10440599;28;3005;-44
2022/09/20 15:33:32;;;;;;;;;;;;;;;19.97;46.58;96079.91;10437209;28;3006;-43
2022/09/20 15:38:33;;;;;;;;;;;;;;;20.00;46.42;96083.88;10450352;28;3351;-44
2022/09/20 15:43:33;;;;;;;;;;;;;;;19.99;46.49;96087.56;10434396;28;3042;-46
2022/09/20 15:48:33;;;;;;;;;;;;;;;19.96;46.25;96082.81;10440327;28;2963;-44
2022/09/20 15:53:34;;;;;;;;;;;;;;;19.94;46.42;96085.72;10471560;28;3006;-45
2022/09/20 15:58:35;;;;;;;;;;;;;;;19.95;46.25;96094.38;10430879;28;3304;-44
2022/09/20 16:03:35;;;;;;;;;;;;;;;19.92;46.36;96095.72;10440060;28;3073;-43
2022/09/20 16:08:36;;;;;;;;;;;;;;;19.91;46.52;96117.00;10443930;28;2995;-43
2022/09/20 16:13:37;;;;;;;;;;;;;;;19.97;46.47;96110.72;10433194;28;3017;-44
2022/09/20 16:24:06;;;;;;;;;;;;;;;20.01;46.44;96114.41;10444830;28;3023;-47
2022/09/20 16:29:07;;;;;;;;;;;;;;;19.94;46.51;96119.94;10436635;28;3002;-46
2022/09/20 16:34:10;;;;;;;;;;;;;;;19.96;46.41;96115.19;10435498;28;3021;-41
2022/09/20 16:39:11;;;;;;;;;;;;;;;19.99;46.39;96127.03;10436957;28;3118;-43
2022/09/20 16:44:14;;;;;;;;;;;;;;;20.00;46.14;96137.31;10437180;28;3064;-43
2022/09/20 16:49:15;;;;;;;;;;;;;;;20.00;46.47;96144.41;10433272;28;3006;-43
2022/09/20 16:54:16;;;;;;;;;;;;;;;19.96;46.48;96145.97;10436378;28;3090;-44
2022/09/20 16:59:17;;;;;;;;;;;;;;;20.06;46.20;96151.25;10446189;28;2961;-46
2022/09/20 17:04:18;;;;;;;;;;;;;;;20.06;46.48;96159.16;10452266;28;3010;-46
2022/09/20 17:09:19;;;;;;;;;;;;;;;20.04;46.32;96166.50;10442976;28;3125;-45
2022/09/20 17:14:20;;;;;;;;;;;;;;;20.06;46.62;96169.66;10462107;28;3173;-45
2022/09/20 17:19:21;;;;;;;;;;;;;;;20.02;46.65;96179.94;10446173;28;3018;-45
2022/09/20 17:24:21;;;;;;;;;;;;;;;20.08;46.56;96193.88;10436607;28;2961;-44
2022/09/20 17:29:22;;;;;;;;;;;;;;;20.06;46.58;96196.78;10443875;28;3018;-45
2022/09/20 17:34:23;;;;;;;;;;;;;;;20.03;47.01;96201.78;10429224;28;3038;-47
2022/09/20 17:39:23;;;;;;;;;;;;;;;20.01;46.98;96203.88;10438493;28;3033;-43
2022/09/20 17:44:24;;;;;;;;;;;;;;;20.03;47.06;96207.06;10428352;28;3033;-44
2022/09/20 17:49:26;;;;;;;;;;;;;;;20.03;47.00;96213.09;10480470;28;2995;-45
2022/09/20 17:54:26;;;;;;;;;;;;;;;20.01;47.18;96212.53;10447348;28;3045;-45
2022/09/20 17:59:27;;;;;;;;;;;;;;;20.03;47.33;96220.22;10438770;28;3019;-46
2022/09/20 18:04:27;;;;;;;;;;;;;;;20.02;47.00;96222.03;10438929;28;3058;-43
2022/09/20 18:09:27;;;;;;;;;;;;;;;20.10;46.84;96231.25;10441808;28;3103;-47
2022/09/20 18:14:30;;;;;;;;;;;;;;;20.15;46.68;96236.56;10429609;28;3098;-48
2022/09/20 18:19:33;;;;;;;;;;;;;;;20.26;46.40;96244.25;10448088;28;3013;-48
2022/09/20 18:24:34;;;;;;;;;;;;;;;20.40;46.53;96244.56;10433135;28;3043;-44
2022/09/20 18:29:35;;;;;;;;;;;;;;;20.46;46.44;96248.78;10450553;28;3107;-46
2022/09/20 18:34:35;;;;;;;;;;;;;;;20.56;46.39;96259.34;10441605;28;3018;-46
2022/09/20 18:39:36;;;;;;;;;;;;;;;20.61;46.35;96256.69;10438077;28;2990;-46
2022/09/20 18:44:37;;;;;;;;;;;;;;;20.66;46.21;96258.53;10434155;28;2977;-45
2022/09/20 18:49:37;;;;;;;;;;;;;;;20.68;45.85;96257.25;10430204;28;3041;-47
2022/09/20 18:54:39;;;;;;;;;;;;;;;20.65;45.26;96265.66;10438919;28;3008;-47
2022/09/20 18:59:39;;;;;;;;;;;;;;;20.64;44.61;96266.72;10444826;28;3228;-47
2022/09/20 19:04:46;;;;;;;;;;;;;;;20.68;44.83;96274.88;10442435;28;2955;-49
2022/09/20 19:10:02;;;;;;;;;;;;;;;20.72;45.10;96268.84;10429272;28;3095;-48
2022/09/20 19:15:18;;;;;;;;;;;;;;;20.92;45.26;96274.13;10432210;28;3136;-45
2022/09/20 19:20:24;;;;;;;;;;;;;;;20.90;43.82;96283.34;10426273;28;2977;-45
2022/09/20 19:25:29;;;;;;;;;;;;;;;20.95;44.59;96281.50;10439346;28;2982;-46
2022/09/20 19:30:31;;;;;;;;;;;;;;;20.97;43.03;96292.59;10436522;28;3024;-45
2022/09/20 19:35:33;;;;;;;;;;;;;;;21.13;43.52;96292.59;10436767;28;3044;-46
2022/09/20 19:40:34;;;;;;;;;;;;;;;21.08;44.21;96291.53;10463150;28;3114;-45
2022/09/20 19:45:47;;;;;;;;;;;;;;;21.01;42.77;96298.91;10434535;28;3021;-43
2022/09/20 19:50:47;;;;;;;;;;;;;;;20.99;42.91;96303.66;10436074;28;3072;-46
2022/09/20 19:55:51;;;;;;;;;;;;;;;20.98;43.82;96312.59;10457664;28;3064;-47
2022/09/20 20:00:52;;;;;;;;;;;;;;;21.01;43.90;96317.34;10463757;28;3040;-45
2022/09/20 20:06:03;;;;;;;;;;;;;;;20.99;43.19;96321.31;10433727;28;3072;-48
2022/09/20 20:11:22;;;;;;;;;;;;;;;21.07;43.00;96312.91;10471233;28;3044;-46
2022/09/20 20:16:44;;;;;;;;;;;;;;;20.99;42.79;96331.84;10441518;28;2970;-46
2022/09/20 20:21:49;;;;;;;;;;;;;;;20.96;43.92;96330.50;10461789;28;3104;-47
2022/09/20 20:26:50;;;;;;;;;;;;;;;20.96;43.70;96337.63;10431388;28;3014;-46
2022/09/20 20:31:50;;;;;;;;;;;;;;;20.94;44.11;96339.72;10434580;28;2961;-47
2022/09/20 20:36:51;;;;;;;;;;;;;;;20.92;44.19;96347.91;10436701;28;2980;-45
2022/09/20 20:41:52;;;;;;;;;;;;;;;20.92;44.44;96347.09;10466329;28;3018;-47
2022/09/20 20:46:52;;;;;;;;;;;;;;;20.91;44.16;96340.28;10429904;28;3195;-47
2022/09/20 20:51:54;;;;;;;;;;;;;;;20.88;44.15;96346.84;10432698;28;3096;-45
2022/09/20 20:57:02;;;;;;;;;;;;;;;20.89;44.11;96343.19;10447473;28;2997;-45
2022/09/20 21:02:02;;;;;;;;;;;;;;;20.91;44.40;96343.69;10450601;28;3033;-48
2022/09/20 21:07:03;;;;;;;;;;;;;;;20.93;44.40;96354.78;10459069;28;3061;-46
2022/09/20 21:12:03;;;;;;;;;;;;;;;20.94;44.30;96355.53;10452693;28;2974;-44
2022/09/20 21:17:04;;;;;;;;;;;;;;;20.97;44.60;96360.31;10454251;28;3085;-46
2022/09/20 21:22:04;;;;;;;;;;;;;;;20.98;44.56;96369.78;10452430;28;3045;-44
2022/09/20 21:27:09;;;;;;;;;;;;;;;20.98;44.51;96370.56;10448014;28;3020;-46
2022/09/20 21:32:10;;;;;;;;;;;;;;;21.04;43.98;96363.53;10446864;28;3109;-48
2022/09/20 21:37:10;;;;;;;;;;;;;;;21.04;44.53;96366.16;10445080;28;2974;-47
2022/09/20 21:42:12;;;;;;;;;;;;;;;21.04;44.05;96366.16;10444729;28;3018;-44
2022/09/20 21:47:19;;;;;;;;;;;;;;;20.96;44.42;96369.25;10438508;28;3089;-45
2022/09/20 21:52:19;;;;;;;;;;;;;;;20.92;44.40;96360.28;10440473;28;3074;-45
2022/09/20 21:57:19;;;;;;;;;;;;;;;20.93;44.30;96362.69;10442916;28;3028;-46
2022/09/20 22:02:19;;;;;;;;;;;;;;;20.95;44.08;96357.13;10435370;28;2975;-44
2022/09/20 22:07:20;;;;;;;;;;;;;;;20.88;44.41;96370.56;10434276;28;2989;-46
2022/09/20 22:12:20;;;;;;;;;;;;;;;20.89;44.27;96379.25;10429116;28;2982;-47
2022/09/20 22:17:21;;;;;;;;;;;;;;;20.84;44.15;96377.41;10443100;28;3007;-44
2022/09/20 22:22:21;;;;;;;;;;;;;;;20.82;44.32;96371.59;10443884;28;2983;-47
2022/09/20 22:27:21;;;;;;;;;;;;;;;20.79;44.53;96374.75;10434805;28;3414;-44
2022/09/20 22:32:21;;;;;;;;;;;;;;;20.83;44.27;96367.13;10431476;28;3014;-44
2022/09/20 22:37:22;;;;;;;;;;;;;;;20.78;44.22;96365.28;10442700;28;3014;-47
2022/09/20 22:42:22;;;;;;;;;;;;;;;20.73;44.37;96362.59;10445003;28;2971;-45
2022/09/20 22:47:22;;;;;;;;;;;;;;;20.72;44.25;96368.16;10433615;28;3339;-44
2022/09/20 22:52:23;;;;;;;;;;;;;;;20.70;44.24;96357.88;10432822;28;2997;-46
2022/09/20 22:57:23;;;;;;;;;;;;;;;20.69;44.32;96368.69;10436353;28;3028;-44
2022/09/20 23:02:23;;;;;;;;;;;;;;;20.69;44.10;96358.16;10446044;28;3005;-44
2022/09/20 23:07:23;;;;;;;;;;;;;;;20.66;44.20;96354.19;10440107;28;3450;-45
2022/09/20 23:12:24;;;;;;;;;;;;;;;20.67;44.13;96358.38;10443848;28;2977;-44
2022/09/20 23:17:24;;;;;;;;;;;;;;;20.63;44.01;96359.94;10438171;28;3224;-44
2022/09/20 23:22:24;;;;;;;;;;;;;;;20.58;44.22;96357.31;10430046;28;3040;-47
2022/09/20 23:27:24;;;;;;;;;;;;;;;20.60;44.02;96349.94;10435567;28;3429;-44
2022/09/20 23:32:25;;;;;;;;;;;;;;;20.56;44.19;96363.88;10436701;28;2974;-45
2022/09/20 23:37:26;;;;;;;;;;;;;;;20.55;44.21;96365.72;10441686;28;3090;-46
2022/09/20 23:42:27;;;;;;;;;;;;;;;20.51;44.01;96362.03;10437971;28;3125;-45
2022/09/20 23:47:27;;;;;;;;;;;;;;;20.48;44.03;96367.03;10433694;28;3048;-45
2022/09/20 23:52:27;;;;;;;;;;;;;;;20.44;44.10;96365.94;10426944;28;3017;-44
2022/09/20 23:57:28;;;;;;;;;;;;;;;20.41;44.18;96359.34;10434065;28;2988;-48
